OMRK/RKT METAR and TAF weather

Enter ICAO airport designator
Station Type Date Time Source
OMRK METAR 2020/08/11 00:00 UTC NOAA

OMRK 110000Z 12006KT CAVOK 34/27 Q0996 A2944


Station Type Date Time Source
OMRK Decoded METAR 2020/08/11 00:00 UTC NOAA

Ras Al Khaimah International Airport, United Arab Emirates (OMRK) 25-37N 055-56E 31M
Aug 10, 2020 - 08:00 PM EDT / 2020.08.11 0000 UTC
Wind: from the ESE (120 degrees) at 7 MPH (6 KT):0
Visibility: greater than 7 mile(s):0
Temperature: 93 F (34 C)
Heat index: 113.0 F (45.0 C):1
Dew Point: 80 F (27 C)
Relative Humidity: 67%
Pressure (altimeter): 29.44 in. Hg (996 hPa)
ob: OMRK 110000Z 12006KT CAVOK 34/27 Q0996 A2944
cycle: 0

Station Type Date Time Source
OMRK TAF 2020/08/10 18:02 UTC NOAA

TAF OMRK 101653Z 1018/1200 10008KT 8000 NSC
BECMG 1108/1110 34012KT
BECMG 1115/1117 07005KT

Example: see airport list